Showell, Maryland
Current Conditions -  °F | °C
As of 12:53 AM on Thursday 29 Jan 2015 (Local Time) from KOXB Reporting Station
Clear Clear  
Wind Chill: 17°   Ceiling: Unl
Heat Index: 25°   Visibility: 10mi
Dew Point: 10°   Wind: 7mph
Humidity: 53%   Direction: 330°NNW
Pressure: 30.3"   Gusts: NA
Location:  38.4°N, 75.22°W
Report Text: KOXB 290553Z AUTO 33006KT 10SM CLR M04/M12 A3030 RMK AO2 SLP261 T10391122 11011 21039 50006 TSNO
Loading
Personal Weather Stations






























Interactive Weather Map New forecast layout! Learn more

10-Day Weather Forecast

Advertisements
Track Severe Weather on mobile